createdAt,value
2022-08-20T00:02:56.015Z,44.38
2022-08-20T00:06:02.087Z,44.51
2022-08-20T00:09:04.036Z,44.49
2022-08-20T00:12:06.745Z,44.81
2022-08-20T00:15:08.788Z,44.46
2022-08-20T00:18:12.686Z,44.63
2022-08-20T00:21:19.197Z,44.62
2022-08-20T00:24:21.072Z,44.78
2022-08-20T00:27:22.619Z,45.21
2022-08-20T00:30:26.518Z,45.30
2022-08-20T00:33:28.287Z,45.08
2022-08-20T00:36:32.164Z,45.35
2022-08-20T00:39:34.807Z,45.30
2022-08-20T00:42:53.188Z,45.71
2022-08-20T00:45:57.261Z,45.72
2022-08-20T00:48:59.973Z,45.38
2022-08-20T00:52:17.361Z,45.90
2022-08-20T00:55:22.853Z,45.90
2022-08-20T00:58:24.872Z,46.10
2022-08-20T01:01:26.767Z,45.69
2022-08-20T01:04:33.769Z,46.20
2022-08-20T01:07:37.459Z,45.94
2022-08-20T01:10:44.660Z,46.14
2022-08-20T01:13:47.004Z,46.28
2022-08-20T01:16:52.745Z,46.17
2022-08-20T01:20:20.525Z,46.31
2022-08-20T01:23:30.274Z,46.29
2022-08-20T01:26:37.830Z,46.30
2022-08-20T01:29:40.744Z,46.78
2022-08-20T01:32:42.440Z,46.52
2022-08-20T01:35:44.556Z,46.92
2022-08-20T01:38:54.188Z,46.60
2022-08-20T01:42:14.297Z,46.68
2022-08-20T01:45:15.954Z,47.04
2022-08-20T01:48:19.582Z,46.85
2022-08-20T01:51:27.072Z,46.93
2022-08-20T01:54:28.792Z,47.15
2022-08-20T01:57:30.609Z,46.91
2022-08-20T02:00:32.630Z,47.24
2022-08-20T02:03:38.768Z,47.12
2022-08-20T02:06:56.339Z,47.43
2022-08-20T02:09:59.887Z,47.17
2022-08-20T02:13:02.257Z,47.20
2022-08-20T02:16:05.979Z,47.70
2022-08-20T02:19:16.645Z,47.74
2022-08-20T02:22:23.533Z,47.74
2022-08-20T02:25:29.472Z,47.72
2022-08-20T02:28:31.142Z,47.64
2022-08-20T02:31:35.004Z,47.59
2022-08-20T02:34:37.150Z,47.64
2022-08-20T02:37:40.416Z,47.97
2022-08-20T02:40:44.227Z,47.92
2022-08-20T02:43:45.829Z,48.06
2022-08-20T02:46:50.450Z,48.08
2022-08-20T02:49:52.020Z,48.13
2022-08-20T02:52:54.162Z,47.83
2022-08-20T02:55:56.769Z,48.13
2022-08-20T02:58:58.385Z,48.27
2022-08-20T03:02:00.702Z,48.06
2022-08-20T03:05:03.710Z,48.06
2022-08-20T03:08:07.305Z,48.36
2022-08-20T03:11:09.098Z,48.14
2022-08-20T03:14:11.757Z,48.15
2022-08-20T03:17:13.601Z,48.22
2022-08-20T03:20:15.335Z,48.62
2022-08-20T03:23:19.306Z,48.63
2022-08-20T03:26:20.927Z,48.45
2022-08-20T03:29:22.580Z,48.37
2022-08-20T03:32:24.197Z,48.74
2022-08-20T03:35:30.132Z,48.51
2022-08-20T03:38:32.367Z,48.66
2022-08-20T03:41:35.000Z,48.54
2022-08-20T03:44:36.638Z,48.59
2022-08-20T03:47:40.009Z,48.87
2022-08-20T03:50:42.484Z,49.07
2022-08-20T03:53:44.146Z,48.99
2022-08-20T03:56:45.701Z,48.86
2022-08-20T03:59:47.360Z,49.06
2022-08-20T04:02:57.231Z,48.84
2022-08-20T04:05:58.932Z,49.38
2022-08-20T04:09:01.085Z,49.03
2022-08-20T04:12:02.870Z,48.99
2022-08-20T04:15:04.892Z,49.07
2022-08-20T04:18:09.985Z,49.31
2022-08-20T04:21:11.785Z,49.39
2022-08-20T04:24:31.108Z,49.66
2022-08-20T04:27:33.804Z,49.36
2022-08-20T04:30:35.612Z,49.54
2022-08-20T04:33:37.624Z,49.25
2022-08-20T04:36:40.572Z,49.46
2022-08-20T04:39:42.174Z,49.49
2022-08-20T04:42:43.789Z,49.74
2022-08-20T04:45:47.185Z,49.62
2022-08-20T04:48:50.502Z,49.56
2022-08-20T04:51:53.387Z,50.00
2022-08-20T04:54:56.550Z,49.68
2022-08-20T04:58:06.237Z,49.82
2022-08-20T05:01:11.928Z,49.72
2022-08-20T05:04:13.595Z,50.09
2022-08-20T05:07:18.696Z,50.09
2022-08-20T05:10:20.662Z,49.94
2022-08-20T05:13:27.109Z,50.17
2022-08-20T05:16:29.129Z,50.35
2022-08-20T05:19:35.805Z,50.37
2022-08-20T05:22:40.144Z,50.19
2022-08-20T05:25:43.833Z,49.98
2022-08-20T05:28:58.797Z,50.36
2022-08-20T05:32:01.797Z,50.49
2022-08-20T05:35:09.724Z,50.53
2022-08-20T05:38:13.794Z,50.19
2022-08-20T05:41:28.848Z,50.56
2022-08-20T05:44:31.549Z,50.51
2022-08-20T05:47:37.207Z,50.41
2022-08-20T05:50:46.404Z,50.56
2022-08-20T05:53:48.480Z,50.25
2022-08-20T05:56:51.042Z,50.70
2022-08-20T05:59:53.662Z,50.74
2022-08-20T06:03:15.063Z,50.69
2022-08-20T06:06:20.723Z,50.85
2022-08-20T06:09:38.420Z,50.75
2022-08-20T06:12:40.070Z,50.39
2022-08-20T06:15:42.101Z,50.33
2022-08-20T06:18:43.694Z,50.34
2022-08-20T06:21:45.351Z,50.75
2022-08-20T06:24:47.063Z,50.82
2022-08-20T06:27:48.765Z,50.45
2022-08-20T06:30:50.513Z,50.77
2022-08-20T06:33:52.184Z,50.76
2022-08-20T06:36:57.868Z,50.93
2022-08-20T06:40:07.137Z,50.78
2022-08-20T06:43:09.768Z,50.70
2022-08-20T06:46:11.417Z,50.90
2022-08-20T06:49:13.458Z,50.70
2022-08-20T06:52:18.278Z,50.78
2022-08-20T06:55:20.808Z,50.76
2022-08-20T06:58:37.582Z,50.87
2022-08-20T07:01:40.440Z,50.44
2022-08-20T07:04:42.108Z,50.63
2022-08-20T07:07:49.560Z,50.90
2022-08-20T07:10:51.336Z,50.89
2022-08-20T07:13:53.333Z,50.69
2022-08-20T07:16:55.177Z,50.50
2022-08-20T07:19:56.923Z,50.39
2022-08-20T07:22:59.178Z,50.86
2022-08-20T07:26:00.884Z,50.40
2022-08-20T07:29:02.725Z,50.41
2022-08-20T07:32:23.634Z,50.79
2022-08-20T07:35:30.852Z,50.70
2022-08-20T07:38:33.563Z,50.89
2022-08-20T07:41:35.209Z,50.40
2022-08-20T07:44:39.363Z,50.80
2022-08-20T07:47:42.912Z,50.75
2022-08-20T07:50:45.133Z,50.75
2022-08-20T07:53:48.553Z,50.70
2022-08-20T07:56:50.178Z,50.36
2022-08-20T07:59:52.028Z,50.28
2022-08-20T08:02:53.700Z,50.21
2022-08-20T08:05:56.134Z,50.61
2022-08-20T08:09:09.868Z,50.54
2022-08-20T08:12:13.961Z,50.13
2022-08-20T08:15:19.181Z,50.32
2022-08-20T08:18:30.029Z,50.18
2022-08-20T08:21:33.555Z,50.08
2022-08-20T08:24:35.256Z,50.49
2022-08-20T08:27:36.978Z,50.16
2022-08-20T08:30:40.410Z,49.87
2022-08-20T08:33:42.335Z,50.43
2022-08-20T08:36:44.362Z,49.83
2022-08-20T08:39:45.959Z,49.75
2022-08-20T08:42:58.236Z,49.96
2022-08-20T08:46:06.369Z,50.02
2022-08-20T08:49:12.319Z,49.92
2022-08-20T08:52:27.509Z,50.04
2022-08-20T08:55:31.088Z,49.57
2022-08-20T08:58:35.499Z,49.87
2022-08-20T09:01:53.729Z,49.38
2022-08-20T09:05:01.998Z,49.34
2022-08-20T09:08:07.465Z,49.49
2022-08-20T09:11:10.524Z,49.18
2022-08-20T09:14:12.902Z,49.15
2022-08-20T09:17:19.691Z,49.38
2022-08-20T09:20:23.028Z,49.04
2022-08-20T09:23:28.788Z,49.14
2022-08-20T09:26:30.910Z,49.06
2022-08-20T09:29:33.329Z,48.96
2022-08-20T09:32:35.409Z,49.02
2022-08-20T09:35:38.092Z,49.09
2022-08-20T09:38:39.749Z,48.67
2022-08-20T09:41:41.444Z,48.73
2022-08-20T09:44:43.614Z,48.68
2022-08-20T09:47:54.754Z,48.48
2022-08-20T09:50:57.658Z,48.30
2022-08-20T09:54:00.012Z,48.25
2022-08-20T09:57:05.245Z,47.98
2022-08-20T10:00:09.392Z,47.88
2022-08-20T10:03:11.098Z,47.81
2022-08-20T10:06:14.805Z,47.54
2022-08-20T10:09:16.567Z,47.57
2022-08-20T10:12:18.192Z,47.40
2022-08-20T10:15:20.064Z,47.33
2022-08-20T10:18:21.617Z,47.07
2022-08-20T10:21:23.370Z,46.95
2022-08-20T10:24:25.304Z,46.88
2022-08-20T10:27:27.053Z,46.65
2022-08-20T10:30:28.780Z,46.80
2022-08-20T10:33:30.420Z,46.34
2022-08-20T10:36:32.458Z,46.34
2022-08-20T10:39:34.507Z,46.27
2022-08-20T10:42:39.217Z,46.29
2022-08-20T10:45:43.956Z,46.01
2022-08-20T10:48:45.708Z,45.89
2022-08-20T10:51:47.245Z,46.02
2022-08-20T10:54:50.049Z,45.83
2022-08-20T10:57:51.719Z,45.76
2022-08-20T11:00:53.528Z,45.48
2022-08-20T11:03:55.141Z,45.36
2022-08-20T11:06:56.765Z,45.47
2022-08-20T11:09:58.634Z,45.55
2022-08-20T11:13:01.585Z,45.51
2022-08-20T11:16:04.188Z,45.45
2022-08-20T11:19:05.748Z,44.97
2022-08-20T11:22:07.865Z,45.24
2022-08-20T11:25:10.413Z,45.24
2022-08-20T11:28:13.131Z,45.03
2022-08-20T11:31:14.708Z,44.92
2022-08-20T11:34:16.489Z,44.52
2022-08-20T11:37:20.474Z,44.56
2022-08-20T11:40:23.298Z,44.90
2022-08-20T11:43:24.894Z,44.32
2022-08-20T11:46:28.592Z,44.44
2022-08-20T11:49:31.816Z,44.12
2022-08-20T11:52:33.943Z,43.98
2022-08-20T11:55:36.641Z,43.97
2022-08-20T11:58:38.590Z,44.13
2022-08-20T12:01:40.252Z,43.67
2022-08-20T12:04:41.902Z,43.49
2022-08-20T12:07:43.486Z,43.87
2022-08-20T12:10:45.150Z,43.15
2022-08-20T12:13:48.136Z,43.62
2022-08-20T12:16:50.766Z,43.61
2022-08-20T12:19:54.768Z,43.66
2022-08-20T12:22:56.634Z,43.19
2022-08-20T12:26:02.734Z,43.06
2022-08-20T12:29:04.356Z,42.99
2022-08-20T12:32:07.332Z,42.67
2022-08-20T12:35:10.564Z,42.62
2022-08-20T12:38:12.304Z,42.53
2022-08-20T12:41:13.847Z,42.52
2022-08-20T12:44:15.402Z,42.51
2022-08-20T12:47:21.534Z,42.99
2022-08-20T12:50:29.685Z,42.97
2022-08-20T12:53:32.938Z,42.51
2022-08-20T12:56:36.229Z,42.68
2022-08-20T12:59:37.768Z,42.79
2022-08-20T13:02:41.193Z,42.75
2022-08-20T13:05:42.852Z,42.95
2022-08-20T13:08:44.526Z,42.92
2022-08-20T13:11:46.209Z,42.65
2022-08-20T13:14:47.885Z,42.49
2022-08-20T13:17:57.737Z,42.64
2022-08-20T13:20:59.425Z,42.06
2022-08-20T13:24:01.080Z,41.93
2022-08-20T13:27:11.656Z,41.93
2022-08-20T13:30:17.402Z,42.17
2022-08-20T13:33:19.040Z,42.38
2022-08-20T13:36:20.745Z,41.99
2022-08-20T13:39:24.145Z,41.96
2022-08-20T13:42:27.472Z,41.98
2022-08-20T13:45:29.093Z,42.17
2022-08-20T13:48:30.691Z,41.63
2022-08-20T13:51:32.281Z,41.58
2022-08-20T13:54:34.612Z,41.77
2022-08-20T13:57:37.074Z,41.48
2022-08-20T14:00:38.833Z,41.45
2022-08-20T14:03:40.777Z,41.60
2022-08-20T14:06:44.413Z,41.49
2022-08-20T14:09:52.292Z,41.99
2022-08-20T14:12:53.979Z,41.69
2022-08-20T14:15:56.537Z,41.89
2022-08-20T14:18:58.107Z,41.82
2022-08-20T14:21:59.701Z,41.55
2022-08-20T14:25:03.678Z,41.70
2022-08-20T14:28:20.658Z,41.65
2022-08-20T14:31:22.297Z,41.58
2022-08-20T14:34:23.949Z,41.51
2022-08-20T14:37:31.089Z,41.54
2022-08-20T14:40:33.332Z,41.38
2022-08-20T14:43:34.982Z,41.42
2022-08-20T14:46:36.603Z,41.43
2022-08-20T14:49:38.693Z,41.13
2022-08-20T14:52:41.256Z,40.88
2022-08-20T14:55:42.981Z,41.37
2022-08-20T14:58:44.718Z,41.21
2022-08-20T15:01:46.384Z,40.96
2022-08-20T15:04:51.641Z,41.34
2022-08-20T15:07:56.512Z,41.31
2022-08-20T15:10:58.524Z,41.44
2022-08-20T15:14:00.289Z,41.16
2022-08-20T15:17:02.039Z,41.52
2022-08-20T15:20:20.321Z,41.13
2022-08-20T15:23:23.064Z,41.26
2022-08-20T15:26:24.677Z,41.29
2022-08-20T15:29:26.448Z,41.26
2022-08-20T15:32:28.049Z,40.89
2022-08-20T15:35:29.870Z,41.29
2022-08-20T15:38:33.052Z,41.15
2022-08-20T15:41:34.846Z,41.05
2022-08-20T15:44:37.364Z,40.95
2022-08-20T15:47:49.561Z,41.19
2022-08-20T15:51:03.402Z,40.94
2022-08-20T15:54:17.433Z,41.11
2022-08-20T15:57:59.291Z,41.07
2022-08-20T16:01:24.501Z,40.93
2022-08-20T16:04:33.118Z,41.03
2022-08-20T16:08:00.937Z,40.91
2022-08-20T16:11:20.516Z,40.74
2022-08-20T16:14:26.529Z,40.95
2022-08-20T16:17:37.763Z,40.94
2022-08-20T16:20:43.732Z,41.03
2022-08-20T16:23:49.614Z,40.91
2022-08-20T16:27:26.040Z,41.00
2022-08-20T16:30:34.113Z,41.11
2022-08-20T16:34:28.170Z,41.01
2022-08-20T16:37:51.764Z,40.73
2022-08-20T16:41:02.210Z,40.87
2022-08-20T16:44:17.408Z,40.90
2022-08-20T16:47:38.386Z,41.07
2022-08-20T16:50:56.113Z,41.14
2022-08-20T16:53:58.600Z,41.07
2022-08-20T16:57:06.100Z,40.91
2022-08-20T17:00:19.637Z,40.98
2022-08-20T17:03:21.198Z,40.90
2022-08-20T17:06:47.216Z,40.92
2022-08-20T17:09:48.884Z,41.07
2022-08-20T17:13:00.015Z,40.95
2022-08-20T17:16:21.006Z,40.87
2022-08-20T17:19:30.488Z,40.80
2022-08-20T17:22:41.415Z,40.90
2022-08-20T17:25:43.109Z,40.98
2022-08-20T17:28:53.850Z,40.93
2022-08-20T17:31:58.195Z,40.95
2022-08-20T17:35:01.963Z,41.04
2022-08-20T17:38:04.696Z,41.21
2022-08-20T17:41:17.252Z,41.17
2022-08-20T17:44:25.808Z,40.89
2022-08-20T17:47:36.143Z,41.17
2022-08-20T17:50:40.191Z,41.02
2022-08-20T17:53:43.375Z,40.97
2022-08-20T17:56:45.071Z,41.20
2022-08-20T18:00:01.955Z,41.07
2022-08-20T18:03:16.332Z,40.87
2022-08-20T18:06:37.627Z,41.04
2022-08-20T18:10:02.083Z,41.37
2022-08-20T18:13:19.898Z,41.10
2022-08-20T18:16:34.040Z,41.37
2022-08-20T18:20:13.717Z,41.41
2022-08-20T18:23:28.773Z,41.05
2022-08-20T18:26:39.950Z,41.55
2022-08-20T18:29:44.560Z,41.49
2022-08-20T18:32:51.133Z,41.31
2022-08-20T18:36:14.621Z,41.62
2022-08-20T18:39:47.041Z,41.24
2022-08-20T18:42:48.708Z,41.52
2022-08-20T18:45:50.293Z,41.38
2022-08-20T18:49:01.640Z,41.28
2022-08-20T18:52:31.701Z,41.49
2022-08-20T18:55:41.985Z,41.48
2022-08-20T18:59:04.486Z,41.82
2022-08-20T19:02:19.933Z,41.80
2022-08-20T19:05:42.895Z,41.91
2022-08-20T19:08:59.920Z,41.58
2022-08-20T19:12:22.827Z,41.56
2022-08-20T19:15:25.379Z,41.73
2022-08-20T19:18:32.024Z,42.11
2022-08-20T19:21:35.773Z,41.52
2022-08-20T19:24:43.552Z,42.02
2022-08-20T19:27:45.603Z,42.18
2022-08-20T19:30:47.504Z,42.16
2022-08-20T19:33:51.740Z,42.09
2022-08-20T19:37:08.913Z,42.14
2022-08-20T19:40:24.490Z,42.15
2022-08-20T19:43:30.081Z,41.90
2022-08-20T19:46:40.233Z,42.23
2022-08-20T19:50:03.866Z,42.25
2022-08-20T19:53:30.050Z,42.07
2022-08-20T19:56:40.975Z,41.98
2022-08-20T19:59:55.096Z,42.13
2022-08-20T20:02:56.865Z,42.20
2022-08-20T20:06:17.495Z,42.38
2022-08-20T20:09:26.195Z,42.38
2022-08-20T20:12:27.798Z,42.46
2022-08-20T20:15:29.477Z,42.17
2022-08-20T20:18:36.978Z,42.23
2022-08-20T20:21:47.658Z,42.45
2022-08-20T20:25:03.059Z,42.29
2022-08-20T20:28:27.433Z,42.53
2022-08-20T20:31:31.913Z,42.33
2022-08-20T20:34:39.932Z,42.35
2022-08-20T20:38:04.212Z,42.57
2022-08-20T20:41:20.356Z,42.44
2022-08-20T20:44:24.925Z,42.60
2022-08-20T20:47:33.417Z,42.52
2022-08-20T20:50:38.422Z,42.61
2022-08-20T20:53:53.335Z,42.64
2022-08-20T20:57:00.442Z,42.65
2022-08-20T21:00:02.092Z,42.64
2022-08-20T21:03:04.290Z,42.78
2022-08-20T21:06:07.117Z,42.78
2022-08-20T21:09:08.777Z,42.86
2022-08-20T21:12:11.483Z,42.80
2022-08-20T21:15:13.210Z,42.86
2022-08-20T21:18:14.822Z,42.83
2022-08-20T21:21:16.480Z,43.00
2022-08-20T21:24:18.161Z,43.11
2022-08-20T21:27:23.687Z,43.00
2022-08-20T21:30:26.212Z,43.03
2022-08-20T21:33:27.954Z,43.05
2022-08-20T21:36:29.620Z,43.11
2022-08-20T21:39:31.437Z,43.13
2022-08-20T21:42:33.221Z,43.02
2022-08-20T21:45:38.828Z,43.14
2022-08-20T21:48:43.199Z,43.10
2022-08-20T21:51:47.991Z,43.16
2022-08-20T21:54:49.663Z,43.24
2022-08-20T21:57:51.410Z,43.24
2022-08-20T22:00:55.746Z,43.21
2022-08-20T22:03:57.377Z,43.17
2022-08-20T22:06:59.093Z,43.26
2022-08-20T22:10:00.768Z,43.33
2022-08-20T22:13:02.975Z,43.43
2022-08-20T22:16:08.450Z,43.36
2022-08-20T22:19:15.349Z,43.28
2022-08-20T22:22:20.113Z,43.42
2022-08-20T22:25:21.777Z,43.31
2022-08-20T22:28:23.749Z,43.39
2022-08-20T22:31:31.785Z,43.63
2022-08-20T22:34:35.775Z,43.64
2022-08-20T22:37:37.420Z,43.57
2022-08-20T22:40:39.113Z,43.80
2022-08-20T22:43:46.205Z,43.63
2022-08-20T22:47:01.492Z,43.69
2022-08-20T22:50:05.193Z,43.59
2022-08-20T22:53:08.013Z,43.67
2022-08-20T22:56:19.646Z,44.11
2022-08-20T22:59:24.215Z,44.01
2022-08-20T23:02:25.947Z,44.09
2022-08-20T23:05:30.590Z,44.15
2022-08-20T23:08:32.329Z,44.01
2022-08-20T23:11:34.044Z,44.41
2022-08-20T23:14:35.707Z,44.50
2022-08-20T23:17:38.428Z,44.12
2022-08-20T23:20:42.793Z,44.61
2022-08-20T23:23:44.468Z,44.26
2022-08-20T23:26:52.706Z,44.36
2022-08-20T23:29:55.041Z,44.24
2022-08-20T23:32:56.770Z,44.37
2022-08-20T23:35:59.501Z,44.65
2022-08-20T23:39:01.281Z,44.74
2022-08-20T23:42:11.021Z,44.67
2022-08-20T23:45:13.085Z,44.65
2022-08-20T23:48:14.653Z,44.77
2022-08-20T23:51:16.306Z,44.60
2022-08-20T23:54:18.047Z,44.51
2022-08-20T23:57:21.139Z,44.65
